createdAt,value
2022-11-05T00:00:03.461Z,101354.47
2022-11-05T00:02:49.034Z,101358.72
2022-11-05T00:05:42.720Z,101356.97
2022-11-05T00:08:27.727Z,101349.91
2022-11-05T00:10:55.678Z,101368.06
2022-11-05T00:13:42.194Z,101377.66
2022-11-05T00:16:27.316Z,101384.06
2022-11-05T00:19:07.324Z,101388.31
2022-11-05T00:21:53.363Z,101387.00
2022-11-05T00:24:38.742Z,101369.69
2022-11-05T00:27:07.098Z,101394.59
2022-11-05T00:29:36.266Z,101388.53
2022-11-05T00:32:03.941Z,101396.19
2022-11-05T00:34:31.503Z,101398.34
2022-11-05T00:36:59.106Z,101376.53
2022-11-05T00:39:26.667Z,101407.94
2022-11-05T00:42:08.130Z,101412.88
2022-11-05T00:44:54.552Z,101408.91
2022-11-05T00:47:39.824Z,101416.28
2022-11-05T00:50:08.035Z,101416.66
2022-11-05T00:52:53.432Z,101413.69
2022-11-05T00:55:21.109Z,101420.22
2022-11-05T00:57:48.700Z,101424.44
2022-11-05T01:00:18.534Z,101422.41
2022-11-05T01:02:46.401Z,101426.63
2022-11-05T01:05:14.602Z,101426.50
2022-11-05T01:07:42.192Z,101435.41
2022-11-05T01:10:10.341Z,101435.28
2022-11-05T01:12:37.922Z,101437.88
2022-11-05T01:15:06.463Z,101438.69
2022-11-05T01:17:35.540Z,101428.97
2022-11-05T01:20:03.245Z,101439.66
2022-11-05T01:22:30.837Z,101435.25
2022-11-05T01:24:58.474Z,101450.00
2022-11-05T01:27:26.065Z,101436.38
2022-11-05T01:29:53.656Z,101446.47
2022-11-05T01:32:21.241Z,101453.84
2022-11-05T01:34:50.493Z,101444.56
2022-11-05T01:37:18.070Z,101451.94
2022-11-05T01:39:45.883Z,101441.28
2022-11-05T01:42:19.960Z,101438.72
2022-11-05T01:44:55.528Z,101437.31
2022-11-05T01:47:42.475Z,101437.44
2022-11-05T01:50:25.802Z,101437.75
2022-11-05T01:52:57.120Z,101438.03
2022-11-05T01:55:29.706Z,101423.28
2022-11-05T01:58:00.033Z,101429.94
2022-11-05T02:00:27.932Z,101426.41
2022-11-05T02:02:55.582Z,101423.53
2022-11-05T02:05:24.644Z,101408.81
2022-11-05T02:07:53.137Z,101411.53
2022-11-05T02:10:21.933Z,101430.78
2022-11-05T02:12:49.592Z,101435.28
2022-11-05T02:15:23.523Z,101429.00
2022-11-05T02:18:06.854Z,101426.97
2022-11-05T02:20:49.415Z,101437.03
2022-11-05T02:23:48.363Z,101430.22
2022-11-05T02:26:44.781Z,101429.97
2022-11-05T02:29:50.690Z,101424.78
2022-11-05T02:32:30.507Z,101416.31
2022-11-05T02:35:14.151Z,101426.38
2022-11-05T02:37:46.056Z,101422.97
2022-11-05T02:40:20.737Z,101428.84
2022-11-05T02:42:59.459Z,101429.94
2022-11-05T02:45:33.464Z,101422.97
2022-11-05T02:48:11.791Z,101422.44
2022-11-05T02:50:50.107Z,101422.44
2022-11-05T02:53:25.052Z,101419.28
2022-11-05T02:55:59.382Z,101411.81
2022-11-05T02:58:28.862Z,101418.06
2022-11-05T03:00:59.460Z,101420.78
2022-11-05T03:03:36.194Z,101417.25
2022-11-05T03:06:30.113Z,101421.63
2022-11-05T03:09:32.703Z,101419.72
2022-11-05T03:12:12.240Z,101414.09
2022-11-05T03:14:47.904Z,101414.22
2022-11-05T03:17:25.147Z,101419.00
2022-11-05T03:20:02.731Z,101419.97
2022-11-05T03:22:35.489Z,101416.56
2022-11-05T03:25:07.785Z,101410.81
2022-11-05T03:27:40.332Z,101428.81
2022-11-05T03:30:11.916Z,101434.09
2022-11-05T03:32:43.176Z,101431.00
2022-11-05T03:35:18.054Z,101430.34
2022-11-05T03:37:48.254Z,101421.31
2022-11-05T03:40:19.355Z,101423.25
2022-11-05T03:42:51.135Z,101422.44
2022-11-05T03:45:22.948Z,101422.69
2022-11-05T03:47:53.450Z,101411.78
2022-11-05T03:50:28.476Z,101414.53
2022-11-05T03:53:01.014Z,101427.19
2022-11-05T03:55:36.429Z,101432.38
2022-11-05T03:58:05.966Z,101425.63
2022-11-05T04:00:34.198Z,101429.50
2022-11-05T04:03:01.850Z,101430.34
2022-11-05T04:05:31.020Z,101394.41
2022-11-05T04:08:16.015Z,101423.75
2022-11-05T04:11:00.404Z,101436.88
2022-11-05T04:13:28.312Z,101434.94
2022-11-05T04:16:15.155Z,101437.28
2022-11-05T04:18:43.772Z,101445.34
2022-11-05T04:21:30.290Z,101433.19
2022-11-05T04:24:10.670Z,101445.75
2022-11-05T04:26:40.082Z,101446.72
2022-11-05T04:29:25.985Z,101449.72
2022-11-05T04:31:54.212Z,101442.91
2022-11-05T04:34:22.931Z,101453.41
2022-11-05T04:36:53.297Z,101451.53
2022-11-05T04:39:21.930Z,101452.22
2022-11-05T04:41:49.565Z,101456.84
2022-11-05T04:44:17.879Z,101457.09
2022-11-05T04:46:45.453Z,101447.97
2022-11-05T04:49:13.020Z,101447.16
2022-11-05T04:51:40.602Z,101436.22
2022-11-05T04:54:09.533Z,101436.22
2022-11-05T04:56:37.069Z,101439.06
2022-11-05T04:59:04.750Z,101442.09
2022-11-05T05:01:32.772Z,101441.53
2022-11-05T05:04:00.503Z,101453.28
2022-11-05T05:06:28.147Z,101451.91
2022-11-05T05:08:55.761Z,101446.47
2022-11-05T05:11:24.741Z,101448.38
2022-11-05T05:13:52.267Z,101440.47
2022-11-05T05:16:22.153Z,101442.34
2022-11-05T05:18:50.362Z,101437.88
2022-11-05T05:21:37.247Z,101453.13
2022-11-05T05:24:06.015Z,101448.88
2022-11-05T05:26:34.829Z,101457.34
2022-11-05T05:29:02.239Z,101452.16
2022-11-05T05:31:29.837Z,101449.72
2022-11-05T05:33:57.466Z,101453.13
2022-11-05T05:36:25.639Z,101456.53
2022-11-05T05:38:53.203Z,101449.88
2022-11-05T05:41:20.876Z,101444.38
2022-11-05T05:43:50.173Z,101457.91
2022-11-05T05:46:19.475Z,101463.09
2022-11-05T05:48:50.239Z,101464.31
2022-11-05T05:51:18.706Z,101479.47
2022-11-05T05:53:46.354Z,101483.84
2022-11-05T05:56:14.989Z,101488.22
2022-11-05T05:58:43.089Z,101492.06
2022-11-05T06:01:18.594Z,101493.16
2022-11-05T06:03:48.266Z,101495.75
2022-11-05T06:06:19.641Z,101488.25
2022-11-05T06:08:47.900Z,101492.75
2022-11-05T06:11:16.018Z,101490.28
2022-11-05T06:13:43.611Z,101498.25
2022-11-05T06:16:12.577Z,101501.09
2022-11-05T06:18:40.465Z,101500.28
2022-11-05T06:21:10.423Z,101500.69
2022-11-05T06:23:40.703Z,101508.22
2022-11-05T06:26:10.270Z,101500.13
2022-11-05T06:28:38.596Z,101496.06
2022-11-05T06:31:07.001Z,101493.47
2022-11-05T06:33:35.989Z,101491.38
2022-11-05T06:36:04.823Z,101484.16
2022-11-05T06:38:33.086Z,101496.44
2022-11-05T06:41:04.584Z,101497.53
2022-11-05T06:43:36.843Z,101504.09
2022-11-05T06:46:04.700Z,101506.97
2022-11-05T06:48:32.324Z,101500.28
2022-11-05T06:51:01.217Z,101501.91
2022-11-05T06:53:28.835Z,101498.09
2022-11-05T06:55:56.406Z,101501.25
2022-11-05T06:58:24.142Z,101490.72
2022-11-05T07:00:52.132Z,101493.44
2022-11-05T07:03:19.806Z,101502.47
2022-11-05T07:05:49.533Z,101500.84
2022-11-05T07:08:18.677Z,101495.91
2022-11-05T07:10:46.229Z,101495.34
2022-11-05T07:13:14.060Z,101500.41
2022-11-05T07:15:42.027Z,101502.75
2022-11-05T07:18:09.635Z,101504.66
2022-11-05T07:20:37.292Z,101495.34
2022-11-05T07:23:06.107Z,101499.16
2022-11-05T07:25:35.424Z,101503.56
2022-11-05T07:28:03.912Z,101496.69
2022-11-05T07:30:31.816Z,101513.13
2022-11-05T07:32:59.437Z,101516.78
2022-11-05T07:35:27.557Z,101518.69
2022-11-05T07:37:56.242Z,101507.50
2022-11-05T07:40:25.004Z,101525.91
2022-11-05T07:42:55.725Z,101521.56
2022-11-05T07:45:23.943Z,101533.59
2022-11-05T07:47:53.438Z,101537.41
2022-11-05T07:50:23.061Z,101519.13
2022-11-05T07:52:51.283Z,101529.63
2022-11-05T07:55:20.216Z,101536.63
2022-11-05T07:57:48.769Z,101538.13
2022-11-05T08:00:21.492Z,101539.06
2022-11-05T08:03:02.336Z,101530.44
2022-11-05T08:05:36.584Z,101537.94
2022-11-05T08:08:04.779Z,101536.97
2022-11-05T08:10:33.880Z,101542.53
2022-11-05T08:13:01.482Z,101525.34
2022-11-05T08:15:30.718Z,101539.78
2022-11-05T08:18:01.741Z,101530.19
2022-11-05T08:20:29.938Z,101528.03
2022-11-05T08:22:58.061Z,101526.94
2022-11-05T08:25:25.862Z,101525.59
2022-11-05T08:27:57.179Z,101520.66
2022-11-05T08:30:25.396Z,101531.69
2022-11-05T08:32:57.745Z,101527.28
2022-11-05T08:35:25.461Z,101529.06
2022-11-05T08:37:57.366Z,101532.88
2022-11-05T08:40:25.031Z,101532.97
2022-11-05T08:42:52.702Z,101531.72
2022-11-05T08:45:20.250Z,101533.22
2022-11-05T08:47:47.832Z,101539.34
2022-11-05T08:50:16.818Z,101541.06
2022-11-05T08:52:44.377Z,101540.03
2022-11-05T08:55:11.938Z,101534.75
2022-11-05T08:57:39.527Z,101534.72
2022-11-05T09:00:08.583Z,101535.38
2022-11-05T09:02:36.178Z,101519.25
2022-11-05T09:05:03.984Z,101534.78
2022-11-05T09:07:33.266Z,101526.06
2022-11-05T09:10:00.925Z,101530.56
2022-11-05T09:12:28.469Z,101538.38
2022-11-05T09:14:56.000Z,101537.88
2022-11-05T09:17:23.929Z,101528.03
2022-11-05T09:19:51.491Z,101536.97
2022-11-05T09:22:19.110Z,101523.56
2022-11-05T09:24:47.994Z,101529.69
2022-11-05T09:27:15.632Z,101527.56
2022-11-05T09:29:43.557Z,101531.81
2022-11-05T09:32:12.049Z,101524.53
2022-11-05T09:34:39.686Z,101529.44
2022-11-05T09:37:07.295Z,101531.47
2022-11-05T09:39:34.918Z,101527.50
2022-11-05T09:42:08.097Z,101536.06
2022-11-05T09:44:41.771Z,101535.47
2022-11-05T09:47:15.662Z,101540.97
2022-11-05T09:49:47.997Z,101542.41
2022-11-05T09:52:20.587Z,101538.50
2022-11-05T09:54:50.264Z,101543.75
2022-11-05T09:57:22.694Z,101540.19
2022-11-05T09:59:53.729Z,101541.72
2022-11-05T10:02:24.646Z,101545.41
2022-11-05T10:04:57.736Z,101547.34
2022-11-05T10:07:28.103Z,101552.13
2022-11-05T10:10:00.216Z,101554.44
2022-11-05T10:12:33.137Z,101551.97
2022-11-05T10:15:11.528Z,101554.34
2022-11-05T10:17:42.676Z,101546.03
2022-11-05T10:20:15.996Z,101549.63
2022-11-05T10:22:49.185Z,101548.09
2022-11-05T10:25:19.849Z,101549.56
2022-11-05T10:27:53.148Z,101555.69
2022-11-05T10:30:22.036Z,101561.03
2022-11-05T10:32:53.175Z,101559.31
2022-11-05T10:35:23.340Z,101562.41
2022-11-05T10:37:53.372Z,101561.97
2022-11-05T10:40:31.044Z,101563.75
2022-11-05T10:43:06.046Z,101564.13
2022-11-05T10:45:47.504Z,101563.13
2022-11-05T10:48:44.124Z,101567.88
2022-11-05T10:51:12.508Z,101553.19
2022-11-05T10:53:43.646Z,101559.06
2022-11-05T10:56:30.126Z,101551.28
2022-11-05T10:59:01.753Z,101560.91
2022-11-05T11:01:30.282Z,101563.72
2022-11-05T11:04:23.053Z,101566.69
2022-11-05T11:06:52.828Z,101540.84
2022-11-05T11:09:24.107Z,101553.56
2022-11-05T11:12:03.612Z,101560.56
2022-11-05T11:14:34.977Z,101566.19
2022-11-05T11:17:33.501Z,101578.69
2022-11-05T11:20:15.747Z,101577.91
2022-11-05T11:22:43.421Z,101566.94
2022-11-05T11:25:24.267Z,101564.03
2022-11-05T11:27:52.400Z,101580.22
2022-11-05T11:30:21.990Z,101568.75
2022-11-05T11:32:50.434Z,101571.56
2022-11-05T11:35:24.471Z,101575.34
2022-11-05T11:37:55.741Z,101579.75
2022-11-05T11:40:25.471Z,101575.84
2022-11-05T11:42:56.816Z,101564.72
2022-11-05T11:45:29.569Z,101560.81
2022-11-05T11:47:57.898Z,101567.81
2022-11-05T11:50:37.914Z,101555.25
2022-11-05T11:53:29.390Z,101561.47
2022-11-05T11:56:06.388Z,101562.28
2022-11-05T11:58:43.763Z,101561.28
2022-11-05T12:01:42.054Z,101561.13
2022-11-05T12:04:24.993Z,101562.63
2022-11-05T12:07:00.498Z,101557.53
2022-11-05T12:09:39.749Z,101562.28
2022-11-05T12:12:13.106Z,101564.38
2022-11-05T12:14:49.858Z,101551.97
2022-11-05T12:17:30.822Z,101554.56
2022-11-05T12:20:36.385Z,101550.63
2022-11-05T12:23:17.761Z,101544.91
2022-11-05T12:25:52.744Z,101543.06
2022-11-05T12:28:36.030Z,101549.47
2022-11-05T12:31:15.514Z,101547.03
2022-11-05T12:33:55.543Z,101544.72
2022-11-05T12:36:36.054Z,101555.69
2022-11-05T12:39:29.525Z,101545.72
2022-11-05T12:42:01.991Z,101549.63
2022-11-05T12:44:52.267Z,101552.44
2022-11-05T12:47:35.758Z,101547.06
2022-11-05T12:50:16.283Z,101545.09
2022-11-05T12:53:26.252Z,101548.72
2022-11-05T12:55:54.840Z,101550.34
2022-11-05T12:58:28.922Z,101541.16
2022-11-05T13:01:00.776Z,101532.19
2022-11-05T13:03:39.188Z,101539.22
2022-11-05T13:06:13.047Z,101537.13
2022-11-05T13:08:47.766Z,101528.75
2022-11-05T13:11:23.634Z,101525.13
2022-11-05T13:14:02.432Z,101517.66
2022-11-05T13:16:33.551Z,101517.69
2022-11-05T13:19:07.504Z,101502.91
2022-11-05T13:21:38.790Z,101507.50
2022-11-05T13:24:15.162Z,101492.03
2022-11-05T13:26:48.125Z,101506.25
2022-11-05T13:29:19.665Z,101512.59
2022-11-05T13:31:52.184Z,101516.34
2022-11-05T13:34:19.754Z,101506.38
2022-11-05T13:37:14.282Z,101500.75
2022-11-05T13:39:49.211Z,101505.78
2022-11-05T13:42:39.646Z,101497.03
2022-11-05T13:45:23.641Z,101492.81
2022-11-05T13:48:07.489Z,101489.97
2022-11-05T13:51:10.013Z,101501.75
2022-11-05T13:54:08.821Z,101498.66
2022-11-05T13:56:55.260Z,101499.31
2022-11-05T13:59:51.342Z,101510.81
2022-11-05T14:02:22.665Z,101505.28
2022-11-05T14:04:59.595Z,101510.00
2022-11-05T14:07:31.279Z,101510.34
2022-11-05T14:10:02.444Z,101495.78
2022-11-05T14:12:33.935Z,101506.72
2022-11-05T14:15:08.475Z,101504.44
2022-11-05T14:17:56.344Z,101501.34
2022-11-05T14:20:27.554Z,101499.06
2022-11-05T14:22:55.161Z,101497.44
2022-11-05T14:25:56.301Z,101492.53
2022-11-05T14:28:40.573Z,101495.16
2022-11-05T14:31:41.161Z,101495.66
2022-11-05T14:34:24.918Z,101496.47
2022-11-05T14:37:22.613Z,101500.56
2022-11-05T14:39:51.089Z,101495.00
2022-11-05T14:42:25.555Z,101491.25
2022-11-05T14:44:59.524Z,101496.16
2022-11-05T14:47:30.571Z,101495.81
2022-11-05T14:50:01.578Z,101489.59
2022-11-05T14:52:29.653Z,101476.56
2022-11-05T14:54:59.201Z,101493.50
2022-11-05T14:58:12.322Z,101493.03
2022-11-05T15:00:45.623Z,101483.72
2022-11-05T15:03:41.123Z,101494.31
2022-11-05T15:06:33.762Z,101483.25
2022-11-05T15:09:34.913Z,101481.13
2022-11-05T15:12:12.316Z,101484.22
2022-11-05T15:14:51.310Z,101486.69
2022-11-05T15:17:23.656Z,101480.81
2022-11-05T15:19:53.121Z,101486.19
2022-11-05T15:22:30.291Z,101488.28
2022-11-05T15:24:57.936Z,101478.50
2022-11-05T15:27:51.197Z,101481.78
2022-11-05T15:30:21.181Z,101477.69
2022-11-05T15:32:50.237Z,101480.31
2022-11-05T15:35:21.421Z,101474.41
2022-11-05T15:37:55.957Z,101469.19
2022-11-05T15:40:28.628Z,101464.78
2022-11-05T15:43:09.763Z,101471.31
2022-11-05T15:45:37.654Z,101465.59
2022-11-05T15:48:15.800Z,101455.63
2022-11-05T15:50:43.520Z,101459.06
2022-11-05T15:53:44.108Z,101464.28
2022-11-05T15:56:11.532Z,101458.72
2022-11-05T15:58:47.222Z,101457.75
2022-11-05T16:01:28.273Z,101458.25
2022-11-05T16:04:03.376Z,101448.78
2022-11-05T16:06:39.813Z,101456.53
2022-11-05T16:09:08.496Z,101450.69
2022-11-05T16:11:36.114Z,101443.00
2022-11-05T16:14:18.123Z,101451.50
2022-11-05T16:16:47.120Z,101450.34
2022-11-05T16:19:40.275Z,101446.09
2022-11-05T16:22:09.370Z,101442.38
2022-11-05T16:24:37.000Z,101441.84
2022-11-05T16:27:05.116Z,101443.66
2022-11-05T16:29:36.188Z,101437.44
2022-11-05T16:32:06.576Z,101440.38
2022-11-05T16:34:38.751Z,101437.75
2022-11-05T16:37:08.001Z,101432.84
2022-11-05T16:39:35.673Z,101440.84
2022-11-05T16:42:03.407Z,101437.91
2022-11-05T16:44:31.008Z,101438.06
2022-11-05T16:46:58.930Z,101428.75
2022-11-05T16:49:26.501Z,101440.53
2022-11-05T16:51:55.401Z,101431.06
2022-11-05T16:54:22.976Z,101436.94
2022-11-05T16:56:50.812Z,101430.25
2022-11-05T16:59:18.691Z,101426.66
2022-11-05T17:01:48.315Z,101433.16
2022-11-05T17:04:19.188Z,101430.25
2022-11-05T17:06:48.949Z,101436.59
2022-11-05T17:09:18.132Z,101432.69
2022-11-05T17:11:46.829Z,101439.03
2022-11-05T17:14:15.088Z,101435.16
2022-11-05T17:16:42.917Z,101432.84
2022-11-05T17:19:16.074Z,101431.56
2022-11-05T17:21:43.678Z,101430.41
2022-11-05T17:24:11.347Z,101421.97
2022-11-05T17:26:40.314Z,101429.78
2022-11-05T17:29:07.920Z,101427.63
2022-11-05T17:31:35.505Z,101437.25
2022-11-05T17:34:03.528Z,101441.47
2022-11-05T17:36:31.138Z,101446.38
2022-11-05T17:38:58.713Z,101445.41
2022-11-05T17:41:26.281Z,101449.63
2022-11-05T17:43:56.777Z,101449.25
2022-11-05T17:46:25.275Z,101450.97
2022-11-05T17:48:52.940Z,101457.78
2022-11-05T17:51:21.149Z,101459.44
2022-11-05T17:53:49.442Z,101450.78
2022-11-05T17:56:32.198Z,101458.78
2022-11-05T17:59:03.773Z,101457.78
2022-11-05T18:01:33.224Z,101460.06
2022-11-05T18:04:07.200Z,101440.16
2022-11-05T18:06:36.440Z,101444.69
2022-11-05T18:09:04.399Z,101437.34
2022-11-05T18:11:32.072Z,101445.81
2022-11-05T18:13:59.860Z,101442.53
2022-11-05T18:16:28.873Z,101444.97
2022-11-05T18:18:56.483Z,101439.59
2022-11-05T18:21:24.058Z,101433.72
2022-11-05T18:23:51.896Z,101433.72
2022-11-05T18:26:20.290Z,101430.91
2022-11-05T18:28:47.991Z,101428.22
2022-11-05T18:31:20.365Z,101430.16
2022-11-05T18:33:50.149Z,101426.88
2022-11-05T18:36:18.405Z,101418.25
2022-11-05T18:38:46.055Z,101423.16
2022-11-05T18:41:13.804Z,101413.88
2022-11-05T18:43:41.398Z,101412.41
2022-11-05T18:46:09.034Z,101404.25
2022-11-05T18:48:36.942Z,101400.66
2022-11-05T18:51:10.135Z,101396.56
2022-11-05T18:53:37.774Z,101372.59
2022-11-05T18:56:08.720Z,101387.78
2022-11-05T18:58:37.359Z,101383.91
2022-11-05T19:01:06.739Z,101389.41
2022-11-05T19:03:34.472Z,101385.84
2022-11-05T19:06:03.654Z,101378.47
2022-11-05T19:08:33.661Z,101356.66
2022-11-05T19:11:01.861Z,101363.66
2022-11-05T19:13:29.431Z,101354.19
2022-11-05T19:15:57.006Z,101359.91
2022-11-05T19:18:24.620Z,101359.56
2022-11-05T19:20:52.319Z,101353.06
2022-11-05T19:23:19.964Z,101358.91
2022-11-05T19:25:49.006Z,101354.34
2022-11-05T19:28:16.621Z,101357.78
2022-11-05T19:30:45.423Z,101343.25
2022-11-05T19:33:12.868Z,101362.19
2022-11-05T19:35:41.818Z,101352.91
2022-11-05T19:38:10.057Z,101347.88
2022-11-05T19:40:38.799Z,101357.16
2022-11-05T19:43:07.790Z,101341.53
2022-11-05T19:45:44.582Z,101326.34
2022-11-05T19:48:18.829Z,101351.63
2022-11-05T19:50:47.502Z,101350.81
2022-11-05T19:53:15.091Z,101348.84
2022-11-05T19:55:44.535Z,101350.81
2022-11-05T19:58:13.998Z,101339.59
2022-11-05T20:00:41.857Z,101335.50
2022-11-05T20:03:10.759Z,101337.63
2022-11-05T20:05:39.019Z,101325.41
2022-11-05T20:08:06.969Z,101322.00
2022-11-05T20:10:38.182Z,101323.47
2022-11-05T20:13:05.852Z,101322.97
2022-11-05T20:15:38.153Z,101313.34
2022-11-05T20:18:06.648Z,101314.31
2022-11-05T20:20:34.375Z,101321.34
2022-11-05T20:23:02.090Z,101307.63
2022-11-05T20:25:29.817Z,101328.19
2022-11-05T20:27:57.772Z,101301.41
2022-11-05T20:30:25.614Z,101304.53
2022-11-05T20:32:56.425Z,101319.34
2022-11-05T20:35:25.495Z,101311.72
2022-11-05T20:37:54.368Z,101310.41
2022-11-05T20:40:22.598Z,101320.00
2022-11-05T20:42:50.168Z,101327.00
2022-11-05T20:45:18.013Z,101327.00
2022-11-05T20:47:45.549Z,101321.78
2022-11-05T20:50:14.522Z,101325.69
2022-11-05T20:52:42.143Z,101324.03
2022-11-05T20:55:10.113Z,101329.09
2022-11-05T20:57:38.375Z,101322.41
2022-11-05T21:00:07.699Z,101336.09
2022-11-05T21:02:35.834Z,101330.06
2022-11-05T21:05:03.536Z,101344.75
2022-11-05T21:07:32.635Z,101341.47
2022-11-05T21:10:00.596Z,101340.00
2022-11-05T21:12:28.320Z,101341.31
2022-11-05T21:14:55.956Z,101342.13
2022-11-05T21:17:23.536Z,101341.78
2022-11-05T21:19:51.076Z,101335.13
2022-11-05T21:22:18.689Z,101333.66
2022-11-05T21:24:47.835Z,101302.81
2022-11-05T21:27:15.743Z,101327.63
2022-11-05T21:29:43.368Z,101322.41
2022-11-05T21:32:11.704Z,101321.44
2022-11-05T21:34:39.506Z,101309.88
2022-11-05T21:37:07.373Z,101306.63
2022-11-05T21:39:35.307Z,101302.38
2022-11-05T21:42:04.422Z,101300.91
2022-11-05T21:44:32.125Z,101308.91
2022-11-05T21:46:59.979Z,101302.06
2022-11-05T21:49:27.710Z,101295.03
2022-11-05T21:52:12.687Z,101298.28
2022-11-05T21:54:58.127Z,101303.19
2022-11-05T21:57:44.770Z,101306.25
2022-11-05T22:00:13.356Z,101297.47
2022-11-05T22:02:41.505Z,101292.75
2022-11-05T22:05:09.929Z,101299.25
2022-11-05T22:07:40.568Z,101290.78
2022-11-05T22:10:15.805Z,101281.00
2022-11-05T22:12:46.536Z,101279.22
2022-11-05T22:15:14.721Z,101276.47
2022-11-05T22:17:46.502Z,101274.66
2022-11-05T22:20:14.753Z,101287.53
2022-11-05T22:22:42.624Z,101279.56
2022-11-05T22:25:10.398Z,101278.41
2022-11-05T22:27:38.113Z,101284.44
2022-11-05T22:30:08.055Z,101286.91
2022-11-05T22:32:35.704Z,101282.50
2022-11-05T22:35:03.496Z,101277.44
2022-11-05T22:37:31.057Z,101287.72
2022-11-05T22:39:58.632Z,101290.97
2022-11-05T22:42:26.326Z,101292.47
2022-11-05T22:44:53.949Z,101286.59
2022-11-05T22:47:23.028Z,101285.16
2022-11-05T22:49:51.061Z,101278.75
2022-11-05T22:52:18.614Z,101269.97
2022-11-05T22:54:47.647Z,101262.81
2022-11-05T22:57:15.494Z,101264.25
2022-11-05T22:59:43.036Z,101261.19
2022-11-05T23:02:10.810Z,101268.19
2022-11-05T23:04:40.193Z,101272.72
2022-11-05T23:07:27.986Z,101264.75
2022-11-05T23:10:12.750Z,101265.41
2022-11-05T23:12:42.646Z,101263.94
2022-11-05T23:15:30.817Z,101269.16
2022-11-05T23:18:16.213Z,101253.38
2022-11-05T23:21:02.897Z,101255.66
2022-11-05T23:23:48.100Z,101235.28
2022-11-05T23:26:41.667Z,101251.22
2022-11-05T23:29:09.289Z,101239.16
2022-11-05T23:31:54.584Z,101237.22
2022-11-05T23:34:22.191Z,101237.56
2022-11-05T23:37:08.896Z,101242.63
2022-11-05T23:39:42.186Z,101225.00
2022-11-05T23:42:28.677Z,101241.97
2022-11-05T23:45:14.795Z,101239.00
2022-11-05T23:48:00.251Z,101240.03
2022-11-05T23:50:28.174Z,101238.69
2022-11-05T23:52:57.335Z,101228.28
2022-11-05T23:55:25.759Z,101226.97
2022-11-05T23:57:53.539Z,101233.81
